Time;durP1;ratioP1;P1;durP2;ratioP2;P2;SDS_P1;SDS_P2;PMS_P1;PMS_P2;Temp;Humidity;BMP_temperature;BMP_pressure;BME280_temperature;BME280_humidity;BME280_pressure;Samples;Min_cycle;Max_cycle;Signal;HPM_P1;HPM_P2
2021/07/30 00:00:27;;;;;;;2.25;1.37;;;;;;;12.78;67.47;98903.47;1757971;80;20939;-65
2021/07/30 00:02:55;;;;;;;5.53;1.20;;;;;;;12.81;67.62;98901.94;1763656;80;20887;-65
2021/07/30 00:05:22;;;;;;;4.67;1.57;;;;;;;12.83;67.33;98898.75;1769633;80;21068;-65
2021/07/30 00:07:49;;;;;;;4.25;1.40;;;;;;;12.78;67.31;98902.98;1744576;80;20976;-65
2021/07/30 00:10:15;;;;;;;2.90;1.42;;;;;;;12.79;67.46;98909.06;1770340;80;20891;-65
2021/07/30 00:12:42;;;;;;;3.17;1.57;;;;;;;12.76;67.42;98905.70;1753196;80;21460;-65
2021/07/30 00:15:09;;;;;;;4.15;1.60;;;;;;;12.75;67.56;98900.11;1768534;80;21492;-65
2021/07/30 00:17:35;;;;;;;4.90;1.47;;;;;;;12.73;67.53;98900.67;1770548;80;21860;-65
2021/07/30 00:20:05;;;;;;;3.42;1.52;;;;;;;12.70;67.66;98894.34;1775357;80;21473;-65
2021/07/30 00:22:32;;;;;;;5.53;1.77;;;;;;;12.71;67.69;98897.31;1773510;80;20883;-65
2021/07/30 00:24:59;;;;;;;3.90;1.70;;;;;;;12.69;67.74;98893.98;1745326;81;20901;-65
2021/07/30 00:27:25;;;;;;;5.53;1.60;;;;;;;12.73;67.87;98899.36;1770954;80;20962;-65
2021/07/30 00:29:52;;;;;;;3.58;1.92;;;;;;;12.61;67.79;98875.34;1776754;80;21284;-65
2021/07/30 00:32:19;;;;;;;2.25;1.20;;;;;;;12.70;67.88;98890.41;1765154;80;21658;-65
2021/07/30 00:34:45;;;;;;;6.53;1.62;;;;;;;12.74;67.99;98889.72;1749861;80;21478;-65
2021/07/30 00:37:12;;;;;;;3.23;1.63;;;;;;;12.76;68.01;98887.84;1743128;81;20940;-65
2021/07/30 00:39:38;;;;;;;3.98;1.75;;;;;;;12.78;68.08;98889.06;1750637;80;20966;-65
2021/07/30 00:42:05;;;;;;;4.62;1.70;;;;;;;12.78;68.10;98887.75;1749976;80;21859;-65
2021/07/30 00:44:31;;;;;;;4.17;1.77;;;;;;;12.78;68.05;98883.82;1778212;80;20896;-64
2021/07/30 00:46:58;;;;;;;3.03;1.47;;;;;;;12.78;68.09;98886.44;1777403;80;20891;-65
2021/07/30 00:49:26;;;;;;;4.22;1.90;;;;;;;12.79;68.11;98888.10;1753768;80;20942;-65
2021/07/30 00:51:53;;;;;;;4.28;1.32;;;;;;;12.79;68.15;98888.94;1749071;80;21692;-65
2021/07/30 00:54:19;;;;;;;6.60;1.70;;;;;;;12.80;68.10;98891.08;1754555;80;20962;-65
2021/07/30 00:56:47;;;;;;;3.77;1.35;;;;;;;12.80;68.27;98885.84;1753611;81;20999;-65
2021/07/30 00:59:13;;;;;;;;;;;;;;;12.81;68.12;98880.98;1748335;80;20922;-65
2021/07/30 01:01:40;;;;;;;4.00;1.45;;;;;;;12.80;68.33;98885.84;1757813;80;20134;-65
2021/07/30 01:04:06;;;;;;;4.33;1.30;;;;;;;12.80;68.24;98883.22;1755483;80;20871;-65
2021/07/30 01:06:33;;;;;;;3.67;1.33;;;;;;;12.79;68.25;98882.86;1758289;80;21952;-65
2021/07/30 01:09:00;;;;;;;3.02;1.60;;;;;;;12.78;68.25;98882.51;1757604;80;21424;-65
2021/07/30 01:11:26;;;;;;;6.33;1.70;;;;;;;12.76;68.23;98879.98;1756539;80;20915;-65
2021/07/30 01:13:53;;;;;;;3.97;1.73;;;;;;;12.75;68.35;98875.22;1758863;80;21189;-65
2021/07/30 01:16:20;;;;;;;3.27;1.50;;;;;;;12.75;68.32;98879.15;1757060;80;20940;-65
2021/07/30 01:18:46;;;;;;;3.17;1.40;;;;;;;12.78;68.34;98874.66;1758065;80;21862;-65
2021/07/30 01:21:31;;;;;;;2.03;1.20;;;;;;;12.81;68.41;98883.60;1751898;80;21497;-65
2021/07/30 01:23:59;;;;;;;3.08;1.20;;;;;;;12.81;68.41;98879.20;1747892;80;20909;-65
2021/07/30 01:26:27;;;;;;;3.95;1.40;;;;;;;12.83;68.45;98880.41;1756108;80;21459;-65
2021/07/30 01:28:53;;;;;;;4.03;1.50;;;;;;;12.85;68.44;98878.50;1754260;80;20889;-65
2021/07/30 01:31:20;;;;;;;2.73;1.57;;;;;;;12.85;68.36;98875.88;1751663;80;21910;-65
2021/07/30 01:33:46;;;;;;;3.40;1.30;;;;;;;12.87;68.36;98880.07;1756016;80;21701;-65
2021/07/30 01:36:13;;;;;;;5.12;1.90;;;;;;;12.86;68.36;98876.27;1758524;80;21457;-66
2021/07/30 01:38:40;;;;;;;2.85;1.20;;;;;;;12.83;68.46;98879.94;1760617;80;21023;-65
2021/07/30 01:41:09;;;;;;;5.10;1.57;;;;;;;12.85;68.37;98874.57;1757823;80;20873;-65
2021/07/30 01:43:41;;;;;;;7.05;1.82;;;;;;;12.82;68.38;98874.79;1731436;80;21936;-65
2021/07/30 01:46:09;;;;;;;6.67;1.32;;;;;;;12.80;68.35;98870.12;1757591;80;20899;-65
2021/07/30 01:48:35;;;;;;;6.67;1.70;;;;;;;12.80;68.37;98868.81;1756233;80;20901;-65
2021/07/30 01:51:03;;;;;;;3.25;1.70;;;;;;;12.78;68.35;98874.17;1756276;80;20909;-65
2021/07/30 01:53:30;;;;;;;5.92;1.50;;;;;;;12.74;68.38;98865.70;1756763;80;20895;-65
2021/07/30 01:55:57;;;;;;;5.20;1.62;;;;;;;12.71;68.36;98869.81;1754123;80;21043;-65
2021/07/30 01:58:23;;;;;;;4.07;1.80;;;;;;;12.72;68.52;98866.75;1753788;80;20859;-65
2021/07/30 02:00:53;;;;;;;3.70;1.70;;;;;;;12.72;68.47;98866.27;1758965;80;20887;-65
2021/07/30 02:03:19;;;;;;;5.12;1.42;;;;;;;12.69;68.44;98859.94;1753742;80;21115;-65
2021/07/30 02:05:46;;;;;;;4.85;1.52;;;;;;;12.67;68.48;98864.44;1757034;80;20934;-65
2021/07/30 02:08:12;;;;;;;2.58;1.52;;;;;;;12.66;68.45;98869.77;1747006;81;21144;-65
2021/07/30 02:10:40;;;;;;;7.62;1.40;;;;;;;12.64;68.48;98864.66;1746506;80;20873;-66
2021/07/30 02:15:52;;;;;;;2.87;1.20;;;;;;;12.65;68.57;98862.39;1732560;81;20942;-65
2021/07/30 02:18:19;;;;;;;4.28;1.50;;;;;;;12.67;68.64;98861.81;1748910;81;20882;-65
2021/07/30 02:20:45;;;;;;;2.47;1.50;;;;;;;12.65;68.58;98858.46;1740778;81;21248;-65
2021/07/30 02:23:12;;;;;;;4.30;1.70;;;;;;;12.63;68.55;98851.20;1744221;81;20900;-65
2021/07/30 02:25:39;;;;;;;5.83;2.07;;;;;;;12.63;68.74;98852.52;1760159;79;20922;-65
2021/07/30 02:28:05;;;;;;;6.30;2.10;;;;;;;12.64;68.59;98858.11;1759943;80;21426;-65
2021/07/30 02:30:32;;;;;;;3.33;1.72;;;;;;;12.60;68.58;98851.39;1756545;80;20960;-65
2021/07/30 02:32:58;;;;;;;3.92;1.75;;;;;;;12.60;68.59;98851.39;1758332;80;21013;-65
2021/07/30 02:35:25;;;;;;;6.28;1.60;;;;;;;12.59;68.59;98851.03;1762225;80;20930;-65
2021/07/30 02:37:51;;;;;;;3.90;1.50;;;;;;;12.57;68.51;98854.22;1747499;80;20926;-65
2021/07/30 02:40:18;;;;;;;4.08;1.90;;;;;;;12.55;68.59;98849.59;1749016;80;20974;-65
2021/07/30 02:42:45;;;;;;;4.58;1.40;;;;;;;12.59;68.69;98848.42;1748084;81;21362;-65
2021/07/30 02:45:12;;;;;;;5.27;2.23;;;;;;;12.57;68.62;98847.67;1738100;81;21107;-65
2021/07/30 02:47:38;;;;;;;3.37;1.40;;;;;;;12.54;68.42;98840.03;1733706;81;20935;-65
2021/07/30 02:50:06;;;;;;;3.35;1.67;;;;;;;12.48;68.48;98847.02;1742156;81;21370;-65
2021/07/30 02:52:33;;;;;;;5.97;1.75;;;;;;;12.39;68.38;98843.73;1737776;81;20982;-65
2021/07/30 02:54:59;;;;;;;4.17;1.60;;;;;;;12.32;68.55;98851.14;1735187;81;20944;-65
2021/07/30 02:57:26;;;;;;;5.30;1.60;;;;;;;12.30;68.56;98853.88;1739140;81;21048;-65
2021/07/30 02:59:52;;;;;;;2.80;1.35;;;;;;;12.25;68.61;98853.35;1743825;81;20888;-65
2021/07/30 03:02:19;;;;;;;2.12;1.10;;;;;;;12.18;68.61;98842.92;1735725;81;20874;-65
2021/07/30 03:04:46;;;;;;;5.12;1.50;;;;;;;12.13;68.53;98843.73;1740469;81;20952;-65
2021/07/30 03:07:12;;;;;;;5.45;1.87;;;;;;;12.05;68.56;98848.64;1733404;81;21450;-65
2021/07/30 03:09:39;;;;;;;6.10;1.60;;;;;;;12.01;68.65;98842.75;1736761;81;21454;-65
2021/07/30 03:12:06;;;;;;;4.90;1.65;;;;;;;12.00;68.77;98845.48;1742959;81;20883;-66
2021/07/30 03:14:33;;;;;;;4.65;2.25;;;;;;;12.05;69.09;98846.02;1741948;81;20926;-65
2021/07/30 03:17:00;;;;;;;4.47;1.80;;;;;;;11.97;68.67;98825.59;1734829;81;20962;-65
2021/07/30 03:19:26;;;;;;;2.77;1.57;;;;;;;11.97;68.67;98825.59;1742647;81;21406;-65
2021/07/30 03:21:53;;;;;;;2.83;1.50;;;;;;;12.15;69.03;98841.82;1740297;81;21135;-65
2021/07/30 03:24:20;;;;;;;6.00;1.73;;;;;;;12.49;69.37;98841.69;1735650;81;20994;-65
2021/07/30 03:26:47;;;;;;;3.10;1.53;;;;;;;13.18;69.24;98843.34;1738960;81;20912;-65
2021/07/30 03:29:13;;;;;;;6.15;1.72;;;;;;;13.83;68.84;98838.66;1735113;81;21623;-65
2021/07/30 03:31:40;;;;;;;3.95;1.50;;;;;;;14.50;68.43;98836.15;1739351;81;20923;-65
2021/07/30 03:34:06;;;;;;;3.22;1.50;;;;;;;15.08;67.86;98831.25;1741906;81;21047;-65
2021/07/30 03:36:33;;;;;;;4.55;1.47;;;;;;;15.60;67.60;98830.95;1735709;81;20947;-65
2021/07/30 03:39:00;;;;;;;4.30;1.97;;;;;;;16.11;67.21;98830.27;1740813;81;20934;-65
2021/07/30 03:41:26;;;;;;;6.08;1.95;;;;;;;16.56;66.87;98829.45;1740740;81;21482;-65
2021/07/30 03:43:53;;;;;;;7.55;1.85;;;;;;;17.19;66.99;98833.20;1743966;81;21004;-65
2021/07/30 03:46:19;;;;;;;3.20;1.60;;;;;;;17.89;66.83;98826.52;1741999;81;21049;-65
2021/07/30 03:48:46;;;;;;;3.87;1.90;;;;;;;18.42;66.31;98823.34;1737634;81;20995;-66
2021/07/30 03:51:12;;;;;;;3.52;1.57;;;;;;;18.91;65.81;98820.05;1740127;81;21464;-66
2021/07/30 03:53:39;;;;;;;3.40;1.50;;;;;;;19.47;64.97;98827.92;1736523;81;20961;-66
2021/07/30 03:56:13;;;;;;;5.05;1.80;;;;;;;19.84;64.38;98818.00;1739639;81;20931;-66
2021/07/30 03:58:48;;;;;;;3.00;1.57;;;;;;;20.29;64.47;98820.96;1738673;81;21526;-66
2021/07/30 04:01:14;;;;;;;5.53;1.77;;;;;;;20.72;64.16;98821.87;1737136;81;20976;-66
2021/07/30 04:03:46;;;;;;;4.35;2.17;;;;;;;21.27;63.58;98821.06;1743450;81;20872;-65
2021/07/30 04:06:11;;;;;;;4.33;2.25;;;;;;;21.77;62.83;98814.85;1733621;81;21108;-66
2021/07/30 04:08:38;;;;;;;8.70;1.77;;;;;;;22.11;62.54;98816.80;1736854;81;20932;-66
2021/07/30 04:11:04;;;;;;;;;;;;;;;22.46;61.67;98821.44;1707513;81;21933;-66
2021/07/30 04:13:33;;;;;;;;;;;;;;;22.66;60.60;98807.71;1742568;81;20500;-65
2021/07/30 04:16:03;;;;;;;7.15;1.52;;;;;;;23.00;60.79;98808.27;1746409;81;20665;-65
2021/07/30 04:18:30;;;;;;;5.17;1.50;;;;;;;23.41;60.22;98802.71;1739141;81;20978;-66
2021/07/30 04:20:57;;;;;;;4.78;1.67;;;;;;;23.77;59.83;98796.78;1740940;81;21013;-66
2021/07/30 04:23:24;;;;;;;9.33;1.70;;;;;;;24.13;59.06;98804.13;1741371;81;21040;-66
2021/07/30 04:25:51;;;;;;;9.00;1.77;;;;;;;24.52;58.98;98803.08;1746809;81;21467;-65
2021/07/30 04:28:17;;;;;;;;;;;;;;;24.86;58.52;98800.33;1750570;81;20920;-66
2021/07/30 04:30:44;;;;;;;;;;;;;;;25.08;56.79;98795.88;1749604;81;20134;-66
2021/07/30 04:33:10;;;;;;;13.62;2.50;;;;;;;25.20;56.31;98796.54;1741414;81;20122;-65
2021/07/30 04:35:37;;;;;;;;;;;;;;;25.48;56.66;98798.47;1742766;81;21108;-65
2021/07/30 04:38:03;;;;;;;6.65;1.80;;;;;;;25.57;55.94;98800.02;1737782;81;20087;-66
2021/07/30 04:40:30;;;;;;;6.25;1.55;;;;;;;25.88;56.00;98796.20;1749933;81;20917;-66
2021/07/30 04:42:58;;;;;;;7.05;1.50;;;;;;;26.19;55.33;98798.48;1742874;81;21089;-66
2021/07/30 04:45:25;;;;;;;7.17;1.87;;;;;;;26.39;55.13;98797.27;1740891;81;21017;-66
2021/07/30 04:47:52;;;;;;;7.92;1.70;;;;;;;26.73;53.83;98792.95;1744491;81;21811;-65
2021/07/30 04:50:19;;;;;;;9.05;2.08;;;;;;;27.04;53.76;98787.61;1741745;81;21477;-66
2021/07/30 04:52:45;;;;;;;15.40;2.58;;;;;;;27.15;53.41;98795.06;1743530;81;21473;-66
2021/07/30 04:55:12;;;;;;;6.62;1.82;;;;;;;27.32;52.30;98788.32;1742276;81;20923;-66
2021/07/30 04:57:38;;;;;;;6.70;2.00;;;;;;;27.37;51.35;98791.22;1740703;81;20934;-65
2021/07/30 05:00:06;;;;;;;7.17;1.72;;;;;;;27.56;51.95;98790.95;1740661;81;21045;-65
2021/07/30 05:02:33;;;;;;;4.87;1.70;;;;;;;27.55;50.79;98781.75;1746033;81;20876;-66
2021/07/30 05:05:00;;;;;;;7.53;1.60;;;;;;;27.51;50.40;98793.93;1742736;81;20879;-66
2021/07/30 05:07:27;;;;;;;15.40;2.58;;;;;;;27.60;50.07;98790.02;1745884;81;20900;-66
2021/07/30 05:09:53;;;;;;;11.45;2.33;;;;;;;27.87;49.59;98785.00;1742381;81;20966;-66
2021/07/30 05:12:20;;;;;;;10.28;2.22;;;;;;;28.16;49.67;98784.25;1750888;80;21419;-66
2021/07/30 05:14:46;;;;;;;11.38;2.35;;;;;;;28.27;48.58;98780.92;1742098;80;20940;-66
2021/07/30 05:17:13;;;;;;;8.75;1.98;;;;;;;28.14;48.08;98780.94;1729418;81;21475;-66
2021/07/30 05:19:40;;;;;;;9.40;1.90;;;;;;;28.25;47.82;98774.93;1747389;80;21491;-66
2021/07/30 05:22:06;;;;;;;7.03;1.75;;;;;;;28.19;47.10;98773.09;1748110;80;20958;-66
2021/07/30 05:24:37;;;;;;;8.13;1.92;;;;;;;28.04;45.77;98775.19;1745649;80;21036;-67
2021/07/30 05:27:06;;;;;;;14.47;2.70;;;;;;;28.06;46.52;98767.73;1752371;81;20942;-66
2021/07/30 05:29:33;;;;;;;18.17;3.10;;;;;;;28.36;46.00;98764.59;1747132;81;20956;-66
2021/07/30 05:32:00;;;;;;;18.48;2.52;;;;;;;28.30;45.65;98763.58;1754453;81;20977;-66
2021/07/30 05:34:26;;;;;;;11.75;2.42;;;;;;;28.30;44.92;98756.34;1753023;81;21436;-66
2021/07/30 05:36:53;;;;;;;4.95;1.62;;;;;;;27.86;43.82;98763.22;1753612;81;21098;-66
2021/07/30 05:39:19;;;;;;;6.70;2.05;;;;;;;27.69;43.97;98753.91;1747542;81;21145;-66
2021/07/30 05:41:46;;;;;;;10.18;2.33;;;;;;;27.86;43.76;98765.90;1751912;81;20916;-66
2021/07/30 05:44:13;;;;;;;15.08;2.60;;;;;;;27.98;43.58;98757.22;1747684;81;20908;-66
2021/07/30 05:46:41;;;;;;;6.67;1.95;;;;;;;27.85;43.31;98753.53;1752351;81;20947;-66
2021/07/30 05:49:07;;;;;;;16.15;2.58;;;;;;;28.09;43.00;98753.91;1748231;81;21466;-66
2021/07/30 05:51:38;;;;;;;11.93;2.50;;;;;;;28.18;42.76;98758.03;1767125;79;21824;-66
2021/07/30 05:54:05;;;;;;;18.67;2.70;;;;;;;28.22;42.42;98751.20;1768899;80;20899;-66
2021/07/30 05:56:31;;;;;;;7.75;2.15;;;;;;;28.08;42.20;98752.27;1766955;80;21029;-66
2021/07/30 05:58:58;;;;;;;11.53;2.30;;;;;;;28.16;42.00;98749.36;1765668;80;20895;-66
2021/07/30 06:01:25;;;;;;;38.63;4.65;;;;;;;28.36;41.75;98751.17;1764920;80;21874;-66
2021/07/30 06:03:52;;;;;;;8.13;1.92;;;;;;;28.50;41.48;98752.81;1763287;80;21434;-66
2021/07/30 06:06:19;;;;;;;7.87;2.10;;;;;;;28.41;41.30;98751.37;1772300;80;21453;-66
2021/07/30 06:08:46;;;;;;;6.55;1.98;;;;;;;28.58;41.37;98757.95;1776113;80;20859;-66
2021/07/30 06:11:14;;;;;;;15.48;2.45;;;;;;;28.84;40.49;98754.31;1775354;80;20890;-66
2021/07/30 06:13:40;;;;;;;12.03;2.30;;;;;;;28.80;40.68;98760.34;1752644;81;21183;-66
2021/07/30 06:16:10;;;;;;;17.10;2.85;;;;;;;28.73;40.38;98747.75;1751684;81;20931;-66
2021/07/30 06:18:38;;;;;;;8.33;1.90;;;;;;;28.88;40.15;98746.67;1772463;80;21082;-66
2021/07/30 06:21:06;;;;;;;18.23;3.10;;;;;;;28.67;38.76;98735.70;1756927;80;21061;-66
2021/07/30 06:23:32;;;;;;;17.60;2.65;;;;;;;28.08;39.15;98734.30;1746260;80;21479;-66
2021/07/30 06:25:59;;;;;;;18.70;2.52;;;;;;;27.84;39.03;98737.14;1757738;81;21481;-66
2021/07/30 06:28:26;;;;;;;14.13;3.10;;;;;;;27.79;39.15;98730.72;1773763;80;20934;-66
2021/07/30 06:30:52;;;;;;;13.35;2.83;;;;;;;27.81;38.90;98730.00;1777653;80;21002;-66
2021/07/30 06:33:22;;;;;;;11.45;2.45;;;;;;;28.06;38.85;98732.86;1753886;80;20973;-66
2021/07/30 06:35:50;;;;;;;44.60;5.97;;;;;;;28.19;38.14;98735.52;1734439;81;20919;-66
2021/07/30 06:38:17;;;;;;;165.28;15.08;;;;;;;28.37;38.49;98734.02;1738211;81;21218;-66
2021/07/30 06:40:47;;;;;;;34.35;5.42;;;;;;;28.20;37.76;98722.39;1752449;81;20963;-66
2021/07/30 06:43:14;;;;;;;308.47;27.65;;;;;;;27.92;37.13;98712.45;1751852;81;20947;-66
2021/07/30 06:45:41;;;;;;;60.28;6.40;;;;;;;27.50;37.11;98717.20;1753893;81;21461;-66
2021/07/30 06:48:07;;;;;;;7.45;1.80;;;;;;;27.36;37.05;98711.86;1752223;81;21528;-66
2021/07/30 06:50:34;;;;;;;11.45;1.82;;;;;;;27.39;36.92;98714.13;1753290;81;21055;-66
2021/07/30 06:53:01;;;;;;;13.03;2.10;;;;;;;27.31;36.36;98717.00;1750371;81;20938;-66
2021/07/30 06:55:27;;;;;;;12.53;1.98;;;;;;;27.24;36.59;98716.16;1750811;80;20955;-66
2021/07/30 06:57:54;;;;;;;34.38;4.12;;;;;;;27.47;36.60;98712.25;1776902;80;20946;-66
2021/07/30 07:00:21;;;;;;;22.05;2.80;;;;;;;27.73;36.50;98716.28;1772582;80;20955;-67
2021/07/30 07:02:47;;;;;;;35.35;3.37;;;;;;;27.64;36.00;98709.45;1778930;80;21193;-66
2021/07/30 07:05:16;;;;;;;25.65;3.95;;;;;;;27.50;35.93;98722.56;1753754;81;20936;-66
2021/07/30 07:07:42;;;;;;;44.23;3.87;;;;;;;27.30;35.75;98716.67;1758734;80;20872;-66
2021/07/30 07:10:10;;;;;;;9.75;1.80;;;;;;;27.03;35.22;98713.12;1754352;81;20910;-65
2021/07/30 07:12:37;;;;;;;34.08;3.70;;;;;;;26.64;35.26;98712.49;1756400;80;20910;-65
2021/07/30 07:15:05;;;;;;;27.35;2.85;;;;;;;26.56;35.46;98715.64;1768281;80;21050;-65
2021/07/30 07:17:31;;;;;;;49.03;5.22;;;;;;;26.54;35.30;98710.99;1756670;80;20876;-65
2021/07/30 07:19:58;;;;;;;17.48;2.40;;;;;;;26.58;35.11;98718.13;1773885;80;20916;-64
2021/07/30 07:22:24;;;;;;;8.48;1.52;;;;;;;26.54;35.10;98720.88;1770733;80;20936;-64
2021/07/30 07:24:51;;;;;;;48.83;4.65;;;;;;;26.61;35.13;98708.84;1774194;80;20971;-64
2021/07/30 07:27:18;;;;;;;57.30;4.15;;;;;;;26.51;34.71;98711.39;1772622;80;21948;-64
2021/07/30 07:29:44;;;;;;;12.40;1.80;;;;;;;26.41;34.91;98717.62;1777604;80;21428;-65
2021/07/30 07:32:11;;;;;;;16.15;2.12;;;;;;;26.31;34.89;98717.15;1773492;80;20865;-65
2021/07/30 07:34:37;;;;;;;;;;;;;;;26.17;34.98;98708.74;1778868;80;20935;-64
2021/07/30 07:37:04;;;;;;;110.52;9.23;;;;;;;25.90;34.47;98709.91;1736809;81;20110;-64
2021/07/30 07:39:32;;;;;;;59.83;5.47;;;;;;;25.37;34.38;98712.14;1748496;81;22162;-64
2021/07/30 07:41:59;;;;;;;37.58;3.35;;;;;;;24.94;34.43;98708.11;1767361;80;20975;-64
2021/07/30 07:44:28;;;;;;;3.75;0.98;;;;;;;24.59;34.72;98711.09;1750400;81;20910;-64
2021/07/30 07:46:57;;;;;;;11.73;1.50;;;;;;;24.43;34.69;98712.11;1746165;81;20903;-64
2021/07/30 07:49:24;;;;;;;24.20;2.40;;;;;;;24.25;34.95;98711.97;1774424;80;21479;-65
2021/07/30 07:51:52;;;;;;;74.40;6.95;;;;;;;24.12;34.96;98706.48;1771584;79;21033;-65
2021/07/30 07:54:18;;;;;;;20.10;1.50;;;;;;;23.93;34.86;98709.69;1775077;80;20867;-65
2021/07/30 07:56:45;;;;;;;41.18;3.83;;;;;;;23.81;35.04;98710.13;1776164;79;20882;-64
2021/07/30 07:59:12;;;;;;;19.85;1.95;;;;;;;23.72;34.86;98703.20;1774128;80;21445;-64
2021/07/30 08:01:39;;;;;;;8.88;1.47;;;;;;;23.57;34.94;98712.99;1775795;80;20927;-64
2021/07/30 08:04:05;;;;;;;21.23;2.45;;;;;;;23.61;35.35;98710.28;1753702;80;22314;-65
2021/07/30 08:06:32;;;;;;;95.67;8.05;;;;;;;23.77;35.13;98705.34;1772829;80;20898;-65
2021/07/30 08:08:58;;;;;;;83.42;6.17;;;;;;;23.70;35.21;98713.21;1751351;80;20934;-64
2021/07/30 08:11:25;;;;;;;17.23;1.82;;;;;;;23.72;35.09;98711.20;1750867;80;20906;-65
2021/07/30 08:13:52;;;;;;;172.78;12.20;;;;;;;23.75;35.20;98715.34;1751838;81;21531;-66
2021/07/30 08:16:24;;;;;;;42.98;3.65;;;;;;;23.60;35.03;98723.29;1748991;81;21067;-64
2021/07/30 08:18:51;;;;;;;10.43;1.55;;;;;;;23.45;35.12;98724.08;1751181;81;20981;-65
2021/07/30 08:21:17;;;;;;;17.30;2.45;;;;;;;23.48;35.10;98727.41;1752445;81;20930;-65
2021/07/30 08:23:44;;;;;;;47.45;3.60;;;;;;;23.37;35.28;98724.66;1747958;81;20864;-65
2021/07/30 08:26:11;;;;;;;23.05;2.02;;;;;;;23.42;35.44;98723.62;1746456;81;21026;-65
2021/07/30 08:28:37;;;;;;;83.42;6.80;;;;;;;23.35;35.33;98725.33;1746200;81;21119;-64
2021/07/30 08:31:04;;;;;;;14.55;1.57;;;;;;;23.06;34.94;98718.06;1752739;81;21015;-65
2021/07/30 08:33:31;;;;;;;47.62;3.15;;;;;;;22.82;34.98;98732.31;1726726;81;21728;-64
2021/07/30 08:35:57;;;;;;;14.10;2.05;;;;;;;22.63;35.31;98722.45;1748744;81;20979;-65
2021/07/30 08:38:24;;;;;;;9.05;2.25;;;;;;;22.65;35.45;98726.24;1752633;81;20883;-66
2021/07/30 08:40:50;;;;;;;91.57;7.40;;;;;;;22.77;35.66;98726.20;1752155;81;21884;-64
2021/07/30 08:43:17;;;;;;;;;;;;;;;22.94;35.66;98715.78;1750142;81;21460;-65
2021/07/30 08:45:51;;;;;;;56.18;4.85;;;;;;;23.05;35.42;98725.23;1749208;81;20110;-65
2021/07/30 08:48:18;;;;;;;159.18;11.70;;;;;;;22.92;35.42;98709.80;1753989;81;20936;-64
2021/07/30 08:50:47;;;;;;;81.80;6.75;;;;;;;22.90;35.42;98725.10;1754534;81;20953;-65
2021/07/30 08:53:22;;;;;;;24.05;1.92;;;;;;;22.78;35.38;98726.52;1761045;80;21001;-64
2021/07/30 08:55:49;;;;;;;41.35;3.37;;;;;;;22.75;35.47;98731.69;1766113;79;20942;-64
2021/07/30 08:58:15;;;;;;;90.22;7.55;;;;;;;22.79;35.59;98724.17;1760660;80;20902;-65
2021/07/30 09:00:42;;;;;;;91.28;7.40;;;;;;;22.75;35.37;98722.38;1762596;80;23860;-65
2021/07/30 09:03:09;;;;;;;21.87;2.35;;;;;;;22.73;35.37;98718.22;1762351;80;20916;-64
2021/07/30 09:05:45;;;;;;;220.02;17.60;;;;;;;22.70;35.51;98711.92;1759660;80;21889;-64
2021/07/30 09:08:16;;;;;;;;;;;;;;;22.64;35.39;98719.28;1762288;80;20948;-64
2021/07/30 09:10:44;;;;;;;30.40;2.42;;;;;;;22.55;35.33;98712.66;1762243;79;20486;-64
2021/07/30 09:13:27;;;;;;;10.13;1.50;;;;;;;22.59;35.59;98708.33;1762135;80;21101;-64
2021/07/30 09:16:09;;;;;;;7.55;1.10;;;;;;;22.70;35.83;98702.61;1763182;80;20950;-64
2021/07/30 09:18:39;;;;;;;134.67;10.38;;;;;;;22.88;35.80;98703.66;1765397;80;21121;-64
2021/07/30 09:21:30;;;;;;;165.75;14.43;;;;;;;22.96;35.68;98705.80;1763700;79;21006;-64
2021/07/30 09:24:13;;;;;;;94.50;8.05;;;;;;;22.94;35.62;98713.12;1768859;80;20891;-64
2021/07/30 09:26:53;;;;;;;13.85;2.12;;;;;;;22.98;35.71;98693.14;1761765;80;20899;-64
2021/07/30 09:29:25;;;;;;;19.07;3.40;;;;;;;22.93;35.36;98700.80;1762846;80;21549;-65
2021/07/30 09:32:08;;;;;;;17.35;2.85;;;;;;;22.82;35.57;98701.20;1750158;80;21878;-64
2021/07/30 09:34:48;;;;;;;86.02;7.40;;;;;;;22.85;35.75;98687.53;1744274;80;20932;-65
2021/07/30 09:37:24;;;;;;;44.75;4.20;;;;;;;23.01;35.66;98695.45;1754557;80;20949;-64
2021/07/30 09:39:52;;;;;;;62.50;4.85;;;;;;;23.07;35.71;98693.09;1771505;80;20904;-65
2021/07/30 09:42:33;;;;;;;251.47;19.98;;;;;;;23.13;35.57;98681.72;1752384;80;20908;-65
2021/07/30 09:45:03;;;;;;;59.20;5.78;;;;;;;23.10;35.38;98676.75;1749682;81;22310;-65
2021/07/30 09:47:34;;;;;;;159.87;10.93;;;;;;;23.03;35.33;98677.98;1753094;81;20906;-65
2021/07/30 09:50:04;;;;;;;15.98;2.37;;;;;;;23.01;35.48;98687.46;1743625;81;20979;-65
2021/07/30 09:52:38;;;;;;;55.67;4.70;;;;;;;23.17;35.60;98680.38;1759224;80;20937;-65
2021/07/30 09:55:12;;;;;;;208.82;17.25;;;;;;;23.31;35.37;98676.92;1761369;80;38759;-64
2021/07/30 09:57:41;;;;;;;99.40;7.42;;;;;;;23.32;35.31;98676.41;1781954;80;21047;-65
2021/07/30 10:00:10;;;;;;;71.45;7.42;;;;;;;23.29;35.32;98686.92;1773215;80;21465;-64
2021/07/30 10:02:38;;;;;;;21.35;3.30;;;;;;;23.33;35.33;98688.23;1758877;80;20961;-65
2021/07/30 10:05:11;;;;;;;21.15;3.02;;;;;;;23.38;35.36;98677.84;1759671;80;20883;-64
2021/07/30 10:07:44;;;;;;;90.32;8.58;;;;;;;23.39;34.96;98667.53;1772895;80;20915;-65
2021/07/30 10:10:21;;;;;;;130.97;13.05;;;;;;;23.41;35.09;98678.84;1747029;80;21941;-64
2021/07/30 10:12:51;;;;;;;17.12;2.12;;;;;;;23.48;35.15;98683.45;1770789;79;20995;-65
2021/07/30 10:15:18;;;;;;;50.12;4.20;;;;;;;23.63;35.30;98680.29;1751696;80;21449;-64
2021/07/30 10:17:48;;;;;;;150.50;12.07;;;;;;;23.77;35.14;98678.17;1771876;80;20946;-65
2021/07/30 10:20:18;;;;;;;50.48;4.47;;;;;;;23.57;34.87;98673.03;1767522;80;20882;-65
2021/07/30 10:23:07;;;;;;;43.80;3.75;;;;;;;23.43;35.00;98671.48;1747172;80;21995;-65
2021/07/30 10:25:39;;;;;;;29.45;3.70;;;;;;;23.49;35.06;98675.77;1775205;80;21419;-64
2021/07/30 10:28:13;;;;;;;45.03;4.55;;;;;;;23.64;34.92;98668.64;1747708;80;20903;-66
2021/07/30 10:30:55;;;;;;;34.80;3.27;;;;;;;23.48;34.77;98667.47;1769940;80;20939;-64
2021/07/30 10:33:37;;;;;;;72.32;5.75;;;;;;;23.46;34.61;98653.80;1715390;81;21401;-64
2021/07/30 10:36:14;;;;;;;12.07;1.98;;;;;;;23.04;34.64;98664.16;1755514;81;21128;-64
2021/07/30 10:38:41;;;;;;;13.27;1.87;;;;;;;23.00;35.04;98669.84;1753254;81;20942;-62
2021/07/30 10:41:12;;;;;;;39.80;4.22;;;;;;;23.29;35.08;98665.62;1722421;81;21603;-64
2021/07/30 10:44:02;;;;;;;34.63;3.27;;;;;;;23.48;35.17;98658.96;1753809;81;20883;-65
2021/07/30 10:46:29;;;;;;;48.87;4.70;;;;;;;23.53;34.90;98661.09;1755517;81;20906;-65
2021/07/30 10:48:56;;;;;;;14.75;2.62;;;;;;;23.42;34.79;98667.17;1752273;81;21432;-66
2021/07/30 10:51:27;;;;;;;17.27;2.35;;;;;;;23.41;34.80;98656.20;1754791;81;20906;-64
2021/07/30 10:54:03;;;;;;;37.63;3.70;;;;;;;23.53;34.83;98653.92;1750238;81;20979;-63
2021/07/30 10:56:35;;;;;;;20.70;2.37;;;;;;;23.39;34.80;98654.22;1753808;81;20949;-64
2021/07/30 10:59:05;;;;;;;18.55;2.47;;;;;;;23.38;34.64;98656.53;1754346;81;20920;-65
2021/07/30 11:01:39;;;;;;;13.62;2.80;;;;;;;23.37;34.88;98656.22;1719235;81;20999;-64
2021/07/30 11:04:09;;;;;;;54.00;4.67;;;;;;;23.55;34.95;98649.22;1752276;81;20960;-65
2021/07/30 11:06:43;;;;;;;68.20;6.35;;;;;;;23.72;34.80;98656.57;1753483;81;20980;-64
2021/07/30 11:09:18;;;;;;;31.80;4.10;;;;;;;23.85;34.74;98644.77;1738225;81;20928;-65
2021/07/30 11:12:03;;;;;;;20.40;3.92;;;;;;;23.93;34.55;98653.70;1738851;81;20947;-63
2021/07/30 11:14:36;;;;;;;58.42;5.70;;;;;;;23.85;34.40;98639.44;1736858;81;20991;-63
2021/07/30 11:17:09;;;;;;;29.00;4.17;;;;;;;23.82;34.55;98643.81;1741509;81;21583;-63
2021/07/30 11:19:42;;;;;;;15.85;2.55;;;;;;;23.93;34.60;98636.37;1739204;81;20945;-64
2021/07/30 11:22:12;;;;;;;28.70;3.75;;;;;;;24.12;34.67;98631.81;1739321;81;20887;-64
2021/07/30 11:24:43;;;;;;;32.50;3.83;;;;;;;24.19;34.17;98646.03;1738933;81;20927;-65
2021/07/30 11:27:13;;;;;;;28.38;3.52;;;;;;;23.99;34.23;98630.30;1738326;81;21862;-64
2021/07/30 11:29:45;;;;;;;109.50;8.95;;;;;;;;;;1738888;81;20904;-64
2021/07/30 11:32:15;;;;;;;44.50;4.65;;;;;;;23.32;34.09;98638.63;1739933;81;20902;-64
2021/07/30 11:34:46;;;;;;;54.80;5.53;;;;;;;23.36;34.25;98639.93;1741655;81;21783;-63
2021/07/30 11:37:19;;;;;;;19.00;3.25;;;;;;;23.48;34.21;98629.66;1738152;81;20952;-64
2021/07/30 11:39:48;;;;;;;139.43;11.10;;;;;;;23.69;34.52;98631.59;1740596;81;21049;-64